sensor_id;sensor_type;location;lat;lon;timestamp;P1;durP1;ratioP1;P2;durP2;ratioP2
21018;SDS011;10667;51.056;3.732;2022-12-07T00:01:27;8.85;;;6.40;;
21018;SDS011;10667;51.056;3.732;2022-12-07T00:03:55;9.32;;;6.13;;
21018;SDS011;10667;51.056;3.732;2022-12-07T00:06:28;8.88;;;5.85;;
21018;SDS011;10667;51.056;3.732;2022-12-07T00:08:55;10.32;;;6.75;;
21018;SDS011;10667;51.056;3.732;2022-12-07T00:11:21;12.15;;;5.72;;
21018;SDS011;10667;51.056;3.732;2022-12-07T00:13:51;8.88;;;5.95;;
21018;SDS011;10667;51.056;3.732;2022-12-07T00:16:19;6.72;;;4.93;;
21018;SDS011;10667;51.056;3.732;2022-12-07T00:18:46;9.40;;;5.13;;
21018;SDS011;10667;51.056;3.732;2022-12-07T00:21:14;9.10;;;5.13;;
21018;SDS011;10667;51.056;3.732;2022-12-07T00:23:42;8.98;;;4.53;;
21018;SDS011;10667;51.056;3.732;2022-12-07T00:26:15;6.90;;;4.50;;
21018;SDS011;10667;51.056;3.732;2022-12-07T00:28:48;14.48;;;4.57;;
21018;SDS011;10667;51.056;3.732;2022-12-07T00:31:19;5.85;;;3.58;;
21018;SDS011;10667;51.056;3.732;2022-12-07T00:33:46;8.85;;;4.35;;
21018;SDS011;10667;51.056;3.732;2022-12-07T00:36:14;5.25;;;3.13;;
21018;SDS011;10667;51.056;3.732;2022-12-07T00:38:41;8.48;;;3.42;;
21018;SDS011;10667;51.056;3.732;2022-12-07T00:41:11;6.25;;;3.35;;
21018;SDS011;10667;51.056;3.732;2022-12-07T00:43:39;6.88;;;3.47;;
21018;SDS011;10667;51.056;3.732;2022-12-07T00:46:06;6.43;;;3.28;;
21018;SDS011;10667;51.056;3.732;2022-12-07T00:48:32;7.43;;;3.38;;
21018;SDS011;10667;51.056;3.732;2022-12-07T00:50:58;8.10;;;3.42;;
21018;SDS011;10667;51.056;3.732;2022-12-07T00:53:24;7.82;;;3.25;;
21018;SDS011;10667;51.056;3.732;2022-12-07T00:55:50;7.88;;;3.63;;
21018;SDS011;10667;51.056;3.732;2022-12-07T00:58:17;8.18;;;3.35;;
21018;SDS011;10667;51.056;3.732;2022-12-07T01:00:43;9.63;;;3.80;;
21018;SDS011;10667;51.056;3.732;2022-12-07T01:03:10;7.32;;;3.95;;
21018;SDS011;10667;51.056;3.732;2022-12-07T01:05:37;6.13;;;3.95;;
21018;SDS011;10667;51.056;3.732;2022-12-07T01:08:03;8.75;;;4.40;;
21018;SDS011;10667;51.056;3.732;2022-12-07T01:10:29;8.18;;;5.07;;
21018;SDS011;10667;51.056;3.732;2022-12-07T01:12:56;7.00;;;4.10;;
21018;SDS011;10667;51.056;3.732;2022-12-07T01:15:23;8.40;;;4.13;;
21018;SDS011;10667;51.056;3.732;2022-12-07T01:17:49;10.10;;;4.47;;
21018;SDS011;10667;51.056;3.732;2022-12-07T01:20:15;8.10;;;5.00;;
21018;SDS011;10667;51.056;3.732;2022-12-07T01:22:41;7.03;;;4.47;;
21018;SDS011;10667;51.056;3.732;2022-12-07T01:25:08;8.20;;;4.43;;
21018;SDS011;10667;51.056;3.732;2022-12-07T01:27:36;6.15;;;4.32;;
21018;SDS011;10667;51.056;3.732;2022-12-07T01:30:03;9.25;;;5.18;;
21018;SDS011;10667;51.056;3.732;2022-12-07T01:32:29;10.05;;;5.13;;
21018;SDS011;10667;51.056;3.732;2022-12-07T01:34:55;7.15;;;4.47;;
21018;SDS011;10667;51.056;3.732;2022-12-07T01:37:21;14.25;;;6.22;;
21018;SDS011;10667;51.056;3.732;2022-12-07T01:39:50;14.63;;;5.88;;
21018;SDS011;10667;51.056;3.732;2022-12-07T01:42:16;7.60;;;5.80;;
21018;SDS011;10667;51.056;3.732;2022-12-07T01:47:43;13.43;;;6.72;;
21018;SDS011;10667;51.056;3.732;2022-12-07T01:50:13;9.40;;;6.13;;
21018;SDS011;10667;51.056;3.732;2022-12-07T01:52:40;14.90;;;6.97;;
21018;SDS011;10667;51.056;3.732;2022-12-07T01:55:09;7.97;;;6.22;;
21018;SDS011;10667;51.056;3.732;2022-12-07T01:57:40;12.02;;;7.22;;
21018;SDS011;10667;51.056;3.732;2022-12-07T02:00:10;11.50;;;6.63;;
21018;SDS011;10667;51.056;3.732;2022-12-07T02:02:38;10.43;;;6.75;;
21018;SDS011;10667;51.056;3.732;2022-12-07T02:05:24;11.18;;;6.82;;
21018;SDS011;10667;51.056;3.732;2022-12-07T02:07:51;12.52;;;6.78;;
21018;SDS011;10667;51.056;3.732;2022-12-07T02:10:20;8.73;;;6.43;;
21018;SDS011;10667;51.056;3.732;2022-12-07T02:12:52;8.35;;;6.47;;
21018;SDS011;10667;51.056;3.732;2022-12-07T02:16:23;9.80;;;6.30;;
21018;SDS011;10667;51.056;3.732;2022-12-07T02:18:43;11.82;;;6.47;;
21018;SDS011;10667;51.056;3.732;2022-12-07T02:27:11;14.68;;;7.78;;
21018;SDS011;10667;51.056;3.732;2022-12-07T02:32:16;13.27;;;7.53;;
21018;SDS011;10667;51.056;3.732;2022-12-07T02:35:05;11.95;;;7.72;;
21018;SDS011;10667;51.056;3.732;2022-12-07T02:40:48;15.32;;;7.72;;
21018;SDS011;10667;51.056;3.732;2022-12-07T02:43:23;12.65;;;7.35;;
21018;SDS011;10667;51.056;3.732;2022-12-07T02:45:51;10.88;;;7.05;;
21018;SDS011;10667;51.056;3.732;2022-12-07T02:48:20;10.68;;;7.90;;
21018;SDS011;10667;51.056;3.732;2022-12-07T02:50:51;18.35;;;7.65;;
21018;SDS011;10667;51.056;3.732;2022-12-07T02:53:28;13.98;;;7.80;;
21018;SDS011;10667;51.056;3.732;2022-12-07T02:55:54;13.05;;;7.28;;
21018;SDS011;10667;51.056;3.732;2022-12-07T03:04:27;10.82;;;6.80;;
21018;SDS011;10667;51.056;3.732;2022-12-07T03:10:32;10.45;;;6.00;;
21018;SDS011;10667;51.056;3.732;2022-12-07T03:18:51;12.18;;;5.32;;
21018;SDS011;10667;51.056;3.732;2022-12-07T03:21:21;8.57;;;5.60;;
21018;SDS011;10667;51.056;3.732;2022-12-07T03:24:09;7.45;;;4.68;;
21018;SDS011;10667;51.056;3.732;2022-12-07T03:26:41;8.73;;;5.22;;
21018;SDS011;10667;51.056;3.732;2022-12-07T03:29:14;8.70;;;4.85;;
21018;SDS011;10667;51.056;3.732;2022-12-07T03:32:01;9.55;;;5.22;;
21018;SDS011;10667;51.056;3.732;2022-12-07T03:34:40;8.48;;;4.82;;
21018;SDS011;10667;51.056;3.732;2022-12-07T03:37:22;9.10;;;4.53;;
21018;SDS011;10667;51.056;3.732;2022-12-07T03:42:38;6.60;;;4.53;;
21018;SDS011;10667;51.056;3.732;2022-12-07T03:45:04;8.13;;;4.07;;
21018;SDS011;10667;51.056;3.732;2022-12-07T03:47:38;8.40;;;4.65;;
21018;SDS011;10667;51.056;3.732;2022-12-07T03:52:59;12.10;;;4.90;;
21018;SDS011;10667;51.056;3.732;2022-12-07T03:55:34;6.93;;;5.50;;
21018;SDS011;10667;51.056;3.732;2022-12-07T03:58:05;10.13;;;4.63;;
21018;SDS011;10667;51.056;3.732;2022-12-07T04:00:34;7.97;;;4.95;;
21018;SDS011;10667;51.056;3.732;2022-12-07T04:03:00;6.60;;;4.32;;
21018;SDS011;10667;51.056;3.732;2022-12-07T04:05:26;6.65;;;4.13;;
21018;SDS011;10667;51.056;3.732;2022-12-07T04:07:52;7.75;;;4.28;;
21018;SDS011;10667;51.056;3.732;2022-12-07T04:10:18;10.07;;;3.85;;
21018;SDS011;10667;51.056;3.732;2022-12-07T04:12:43;9.85;;;4.53;;
21018;SDS011;10667;51.056;3.732;2022-12-07T04:15:09;5.18;;;3.72;;
21018;SDS011;10667;51.056;3.732;2022-12-07T04:17:35;6.53;;;3.97;;
21018;SDS011;10667;51.056;3.732;2022-12-07T04:20:02;7.90;;;4.20;;
21018;SDS011;10667;51.056;3.732;2022-12-07T04:22:29;8.82;;;4.30;;
21018;SDS011;10667;51.056;3.732;2022-12-07T04:24:54;7.72;;;4.45;;
21018;SDS011;10667;51.056;3.732;2022-12-07T04:27:20;10.77;;;3.75;;
21018;SDS011;10667;51.056;3.732;2022-12-07T04:29:46;8.38;;;3.83;;
21018;SDS011;10667;51.056;3.732;2022-12-07T04:32:12;9.60;;;4.90;;
21018;SDS011;10667;51.056;3.732;2022-12-07T04:34:38;8.02;;;3.63;;
21018;SDS011;10667;51.056;3.732;2022-12-07T04:37:04;9.63;;;4.20;;
21018;SDS011;10667;51.056;3.732;2022-12-07T04:39:30;10.95;;;4.03;;
21018;SDS011;10667;51.056;3.732;2022-12-07T04:41:58;6.03;;;3.70;;
21018;SDS011;10667;51.056;3.732;2022-12-07T04:44:24;8.38;;;3.80;;
21018;SDS011;10667;51.056;3.732;2022-12-07T04:46:51;9.77;;;4.30;;
21018;SDS011;10667;51.056;3.732;2022-12-07T04:49:17;8.70;;;3.63;;
21018;SDS011;10667;51.056;3.732;2022-12-07T04:51:44;6.47;;;4.10;;
21018;SDS011;10667;51.056;3.732;2022-12-07T04:54:10;8.73;;;4.65;;
21018;SDS011;10667;51.056;3.732;2022-12-07T04:56:37;6.45;;;3.67;;
21018;SDS011;10667;51.056;3.732;2022-12-07T04:59:03;14.77;;;4.10;;
21018;SDS011;10667;51.056;3.732;2022-12-07T05:01:30;6.68;;;4.10;;
21018;SDS011;10667;51.056;3.732;2022-12-07T05:03:56;5.72;;;3.90;;
21018;SDS011;10667;51.056;3.732;2022-12-07T05:06:22;9.00;;;4.18;;
21018;SDS011;10667;51.056;3.732;2022-12-07T05:08:48;8.98;;;3.22;;
21018;SDS011;10667;51.056;3.732;2022-12-07T05:11:14;8.65;;;4.18;;
21018;SDS011;10667;51.056;3.732;2022-12-07T05:13:59;10.30;;;4.07;;
21018;SDS011;10667;51.056;3.732;2022-12-07T05:16:25;9.25;;;3.90;;
21018;SDS011;10667;51.056;3.732;2022-12-07T05:18:51;8.20;;;3.42;;
21018;SDS011;10667;51.056;3.732;2022-12-07T05:21:17;7.93;;;3.45;;
21018;SDS011;10667;51.056;3.732;2022-12-07T05:23:43;5.95;;;3.30;;
21018;SDS011;10667;51.056;3.732;2022-12-07T05:26:08;7.05;;;3.70;;
21018;SDS011;10667;51.056;3.732;2022-12-07T05:28:34;9.50;;;3.08;;
21018;SDS011;10667;51.056;3.732;2022-12-07T05:31:00;9.23;;;3.50;;
21018;SDS011;10667;51.056;3.732;2022-12-07T05:33:26;7.43;;;3.15;;
21018;SDS011;10667;51.056;3.732;2022-12-07T05:35:52;7.70;;;3.38;;
21018;SDS011;10667;51.056;3.732;2022-12-07T05:38:17;6.32;;;3.20;;
21018;SDS011;10667;51.056;3.732;2022-12-07T05:40:43;12.23;;;3.60;;
21018;SDS011;10667;51.056;3.732;2022-12-07T05:43:09;7.00;;;4.05;;
21018;SDS011;10667;51.056;3.732;2022-12-07T05:45:35;9.73;;;3.97;;
21018;SDS011;10667;51.056;3.732;2022-12-07T05:48:01;8.43;;;3.80;;
21018;SDS011;10667;51.056;3.732;2022-12-07T05:50:27;8.23;;;4.43;;
21018;SDS011;10667;51.056;3.732;2022-12-07T05:52:53;4.82;;;3.80;;
21018;SDS011;10667;51.056;3.732;2022-12-07T05:55:19;7.32;;;3.90;;
21018;SDS011;10667;51.056;3.732;2022-12-07T05:57:45;7.07;;;3.42;;
21018;SDS011;10667;51.056;3.732;2022-12-07T06:00:31;9.40;;;3.85;;
21018;SDS011;10667;51.056;3.732;2022-12-07T06:02:57;7.38;;;3.92;;
21018;SDS011;10667;51.056;3.732;2022-12-07T06:05:22;7.93;;;3.75;;
21018;SDS011;10667;51.056;3.732;2022-12-07T06:07:48;10.93;;;4.28;;
21018;SDS011;10667;51.056;3.732;2022-12-07T06:10:14;7.43;;;3.80;;
21018;SDS011;10667;51.056;3.732;2022-12-07T06:12:40;8.77;;;4.15;;
21018;SDS011;10667;51.056;3.732;2022-12-07T06:15:08;8.40;;;4.28;;
21018;SDS011;10667;51.056;3.732;2022-12-07T06:17:34;12.38;;;4.13;;
21018;SDS011;10667;51.056;3.732;2022-12-07T06:20:00;6.07;;;4.07;;
21018;SDS011;10667;51.056;3.732;2022-12-07T06:22:26;7.05;;;4.05;;
21018;SDS011;10667;51.056;3.732;2022-12-07T06:24:52;8.10;;;4.15;;
21018;SDS011;10667;51.056;3.732;2022-12-07T06:27:18;10.88;;;4.63;;
21018;SDS011;10667;51.056;3.732;2022-12-07T06:29:43;8.82;;;4.78;;
21018;SDS011;10667;51.056;3.732;2022-12-07T06:32:09;11.45;;;4.13;;
21018;SDS011;10667;51.056;3.732;2022-12-07T06:34:35;9.23;;;4.32;;
21018;SDS011;10667;51.056;3.732;2022-12-07T06:37:01;11.13;;;4.22;;
21018;SDS011;10667;51.056;3.732;2022-12-07T06:39:27;9.82;;;4.50;;
21018;SDS011;10667;51.056;3.732;2022-12-07T06:41:53;15.75;;;4.75;;
21018;SDS011;10667;51.056;3.732;2022-12-07T06:44:19;9.93;;;4.90;;
21018;SDS011;10667;51.056;3.732;2022-12-07T06:46:46;13.07;;;4.97;;
21018;SDS011;10667;51.056;3.732;2022-12-07T06:49:12;8.23;;;4.55;;
21018;SDS011;10667;51.056;3.732;2022-12-07T06:51:38;8.48;;;4.95;;
21018;SDS011;10667;51.056;3.732;2022-12-07T06:54:09;6.35;;;4.30;;
21018;SDS011;10667;51.056;3.732;2022-12-07T06:56:36;9.02;;;4.60;;
21018;SDS011;10667;51.056;3.732;2022-12-07T06:59:02;8.65;;;4.28;;
21018;SDS011;10667;51.056;3.732;2022-12-07T07:01:28;14.23;;;5.97;;
21018;SDS011;10667;51.056;3.732;2022-12-07T07:03:54;11.20;;;4.57;;
21018;SDS011;10667;51.056;3.732;2022-12-07T07:06:20;8.88;;;4.50;;
21018;SDS011;10667;51.056;3.732;2022-12-07T07:08:46;12.90;;;5.38;;
21018;SDS011;10667;51.056;3.732;2022-12-07T07:11:11;5.85;;;4.28;;
21018;SDS011;10667;51.056;3.732;2022-12-07T07:13:37;7.80;;;4.40;;
21018;SDS011;10667;51.056;3.732;2022-12-07T07:16:03;11.60;;;5.00;;
21018;SDS011;10667;51.056;3.732;2022-12-07T07:18:29;10.48;;;4.28;;
21018;SDS011;10667;51.056;3.732;2022-12-07T07:20:55;9.93;;;4.50;;
21018;SDS011;10667;51.056;3.732;2022-12-07T07:23:20;7.85;;;4.53;;
21018;SDS011;10667;51.056;3.732;2022-12-07T07:25:46;7.70;;;4.00;;
21018;SDS011;10667;51.056;3.732;2022-12-07T07:28:13;10.15;;;4.60;;
21018;SDS011;10667;51.056;3.732;2022-12-07T07:30:39;9.70;;;4.50;;
21018;SDS011;10667;51.056;3.732;2022-12-07T07:33:05;9.05;;;4.22;;
21018;SDS011;10667;51.056;3.732;2022-12-07T07:35:32;12.15;;;4.88;;
21018;SDS011;10667;51.056;3.732;2022-12-07T07:37:59;10.10;;;4.55;;
21018;SDS011;10667;51.056;3.732;2022-12-07T07:40:25;10.63;;;4.10;;
21018;SDS011;10667;51.056;3.732;2022-12-07T07:42:52;5.97;;;3.92;;
21018;SDS011;10667;51.056;3.732;2022-12-07T07:45:19;13.93;;;4.78;;
21018;SDS011;10667;51.056;3.732;2022-12-07T07:47:47;10.60;;;3.95;;
21018;SDS011;10667;51.056;3.732;2022-12-07T07:50:13;6.88;;;3.58;;
21018;SDS011;10667;51.056;3.732;2022-12-07T07:52:39;12.45;;;3.78;;
21018;SDS011;10667;51.056;3.732;2022-12-07T07:55:04;10.20;;;4.57;;
21018;SDS011;10667;51.056;3.732;2022-12-07T07:57:32;9.35;;;5.85;;
21018;SDS011;10667;51.056;3.732;2022-12-07T07:59:58;7.20;;;5.05;;
21018;SDS011;10667;51.056;3.732;2022-12-07T08:02:23;10.63;;;4.43;;
21018;SDS011;10667;51.056;3.732;2022-12-07T08:04:49;8.30;;;4.10;;
21018;SDS011;10667;51.056;3.732;2022-12-07T08:07:15;8.80;;;4.50;;
21018;SDS011;10667;51.056;3.732;2022-12-07T08:09:41;9.25;;;4.40;;
21018;SDS011;10667;51.056;3.732;2022-12-07T08:12:07;10.25;;;3.83;;
21018;SDS011;10667;51.056;3.732;2022-12-07T08:14:33;9.80;;;4.57;;
21018;SDS011;10667;51.056;3.732;2022-12-07T08:16:59;11.20;;;4.22;;
21018;SDS011;10667;51.056;3.732;2022-12-07T08:19:25;8.93;;;4.68;;
21018;SDS011;10667;51.056;3.732;2022-12-07T08:21:51;9.15;;;4.40;;
21018;SDS011;10667;51.056;3.732;2022-12-07T08:24:17;11.38;;;4.30;;
21018;SDS011;10667;51.056;3.732;2022-12-07T08:26:43;8.25;;;4.18;;
21018;SDS011;10667;51.056;3.732;2022-12-07T08:29:09;13.20;;;4.13;;
21018;SDS011;10667;51.056;3.732;2022-12-07T08:31:35;13.13;;;3.83;;
21018;SDS011;10667;51.056;3.732;2022-12-07T08:34:01;8.77;;;4.13;;
21018;SDS011;10667;51.056;3.732;2022-12-07T08:36:27;11.38;;;5.57;;
21018;SDS011;10667;51.056;3.732;2022-12-07T08:38:52;8.20;;;4.30;;
21018;SDS011;10667;51.056;3.732;2022-12-07T08:41:18;9.65;;;4.70;;
21018;SDS011;10667;51.056;3.732;2022-12-07T08:43:44;8.77;;;4.22;;
21018;SDS011;10667;51.056;3.732;2022-12-07T08:46:11;8.43;;;4.25;;
21018;SDS011;10667;51.056;3.732;2022-12-07T08:48:58;11.48;;;4.35;;
21018;SDS011;10667;51.056;3.732;2022-12-07T08:51:27;10.35;;;4.72;;
21018;SDS011;10667;51.056;3.732;2022-12-07T08:53:53;14.77;;;6.80;;
21018;SDS011;10667;51.056;3.732;2022-12-07T08:56:20;13.25;;;5.00;;
21018;SDS011;10667;51.056;3.732;2022-12-07T08:58:46;9.57;;;4.43;;
21018;SDS011;10667;51.056;3.732;2022-12-07T09:01:13;9.18;;;4.35;;
21018;SDS011;10667;51.056;3.732;2022-12-07T09:03:38;10.93;;;4.22;;
21018;SDS011;10667;51.056;3.732;2022-12-07T09:06:05;11.25;;;4.35;;
21018;SDS011;10667;51.056;3.732;2022-12-07T09:08:32;11.68;;;3.90;;
21018;SDS011;10667;51.056;3.732;2022-12-07T09:11:05;13.10;;;4.57;;
21018;SDS011;10667;51.056;3.732;2022-12-07T09:13:31;9.00;;;4.70;;
21018;SDS011;10667;51.056;3.732;2022-12-07T09:15:56;10.18;;;4.30;;
21018;SDS011;10667;51.056;3.732;2022-12-07T09:18:22;10.50;;;4.75;;
21018;SDS011;10667;51.056;3.732;2022-12-07T09:20:49;8.20;;;4.05;;
21018;SDS011;10667;51.056;3.732;2022-12-07T09:23:15;9.82;;;4.68;;
21018;SDS011;10667;51.056;3.732;2022-12-07T09:25:41;8.57;;;4.55;;
21018;SDS011;10667;51.056;3.732;2022-12-07T09:28:06;12.00;;;5.60;;
21018;SDS011;10667;51.056;3.732;2022-12-07T09:30:32;12.55;;;3.72;;
21018;SDS011;10667;51.056;3.732;2022-12-07T09:32:58;7.18;;;3.70;;
21018;SDS011;10667;51.056;3.732;2022-12-07T09:35:24;8.35;;;3.30;;
21018;SDS011;10667;51.056;3.732;2022-12-07T09:37:50;10.18;;;3.70;;
21018;SDS011;10667;51.056;3.732;2022-12-07T09:40:16;6.03;;;2.88;;
21018;SDS011;10667;51.056;3.732;2022-12-07T09:42:45;10.45;;;3.13;;
21018;SDS011;10667;51.056;3.732;2022-12-07T09:45:24;15.20;;;3.65;;
21018;SDS011;10667;51.056;3.732;2022-12-07T09:48:02;14.93;;;4.53;;
21018;SDS011;10667;51.056;3.732;2022-12-07T09:50:28;10.80;;;3.90;;
21018;SDS011;10667;51.056;3.732;2022-12-07T09:53:07;10.43;;;4.32;;
21018;SDS011;10667;51.056;3.732;2022-12-07T09:55:37;10.48;;;3.92;;
21018;SDS011;10667;51.056;3.732;2022-12-07T09:58:05;8.98;;;3.53;;
21018;SDS011;10667;51.056;3.732;2022-12-07T10:00:31;11.85;;;4.38;;
21018;SDS011;10667;51.056;3.732;2022-12-07T10:02:58;11.45;;;4.18;;
21018;SDS011;10667;51.056;3.732;2022-12-07T10:05:35;10.60;;;4.43;;
21018;SDS011;10667;51.056;3.732;2022-12-07T10:08:05;11.25;;;4.18;;
21018;SDS011;10667;51.056;3.732;2022-12-07T10:10:35;19.20;;;4.22;;
21018;SDS011;10667;51.056;3.732;2022-12-07T10:13:06;13.38;;;4.25;;
21018;SDS011;10667;51.056;3.732;2022-12-07T10:15:48;13.07;;;4.50;;
21018;SDS011;10667;51.056;3.732;2022-12-07T10:18:40;15.52;;;5.20;;
21018;SDS011;10667;51.056;3.732;2022-12-07T10:21:14;11.00;;;4.28;;
21018;SDS011;10667;51.056;3.732;2022-12-07T10:24:00;13.73;;;4.15;;
21018;SDS011;10667;51.056;3.732;2022-12-07T10:26:36;7.03;;;4.45;;
21018;SDS011;10667;51.056;3.732;2022-12-07T10:31:45;9.73;;;3.85;;
21018;SDS011;10667;51.056;3.732;2022-12-07T10:36:51;10.35;;;4.40;;
21018;SDS011;10667;51.056;3.732;2022-12-07T10:39:22;17.40;;;6.30;;
21018;SDS011;10667;51.056;3.732;2022-12-07T10:44:22;10.13;;;4.28;;
21018;SDS011;10667;51.056;3.732;2022-12-07T10:50:16;9.23;;;3.97;;
21018;SDS011;10667;51.056;3.732;2022-12-07T10:53:00;12.75;;;5.15;;
21018;SDS011;10667;51.056;3.732;2022-12-07T10:58:20;13.35;;;4.95;;
21018;SDS011;10667;51.056;3.732;2022-12-07T11:06:35;9.65;;;3.53;;
21018;SDS011;10667;51.056;3.732;2022-12-07T11:16:52;5.60;;;3.30;;
21018;SDS011;10667;51.056;3.732;2022-12-07T11:28:03;7.53;;;3.28;;
21018;SDS011;10667;51.056;3.732;2022-12-07T11:31:22;8.05;;;4.22;;
21018;SDS011;10667;51.056;3.732;2022-12-07T11:38:19;7.95;;;3.85;;
21018;SDS011;10667;51.056;3.732;2022-12-07T11:40:55;9.10;;;3.88;;
21018;SDS011;10667;51.056;3.732;2022-12-07T11:43:37;5.65;;;2.80;;
21018;SDS011;10667;51.056;3.732;2022-12-07T11:46:17;6.68;;;3.50;;
21018;SDS011;10667;51.056;3.732;2022-12-07T11:48:45;5.80;;;3.17;;
21018;SDS011;10667;51.056;3.732;2022-12-07T11:51:35;11.55;;;3.47;;
21018;SDS011;10667;51.056;3.732;2022-12-07T11:54:21;8.30;;;3.35;;
21018;SDS011;10667;51.056;3.732;2022-12-07T11:56:52;9.85;;;3.00;;
21018;SDS011;10667;51.056;3.732;2022-12-07T11:59:27;10.93;;;2.88;;
21018;SDS011;10667;51.056;3.732;2022-12-07T12:02:11;5.03;;;2.85;;
21018;SDS011;10667;51.056;3.732;2022-12-07T12:07:40;6.25;;;3.40;;
21018;SDS011;10667;51.056;3.732;2022-12-07T12:10:16;6.53;;;3.35;;
21018;SDS011;10667;51.056;3.732;2022-12-07T12:15:47;6.88;;;4.00;;
21018;SDS011;10667;51.056;3.732;2022-12-07T12:18:21;10.43;;;2.80;;
21018;SDS011;10667;51.056;3.732;2022-12-07T12:20:55;8.38;;;2.80;;
21018;SDS011;10667;51.056;3.732;2022-12-07T12:23:48;7.47;;;2.58;;
21018;SDS011;10667;51.056;3.732;2022-12-07T12:26:27;9.57;;;2.88;;
21018;SDS011;10667;51.056;3.732;2022-12-07T12:28:58;5.97;;;2.67;;
21018;SDS011;10667;51.056;3.732;2022-12-07T12:34:02;6.43;;;3.15;;
21018;SDS011;10667;51.056;3.732;2022-12-07T12:36:48;13.35;;;3.47;;
21018;SDS011;10667;51.056;3.732;2022-12-07T12:39:15;8.07;;;3.55;;
21018;SDS011;10667;51.056;3.732;2022-12-07T12:51:47;8.70;;;3.60;;
21018;SDS011;10667;51.056;3.732;2022-12-07T12:54:30;7.40;;;3.80;;
21018;SDS011;10667;51.056;3.732;2022-12-07T13:01:55;11.30;;;4.20;;
21018;SDS011;10667;51.056;3.732;2022-12-07T13:04:39;9.77;;;3.55;;
21018;SDS011;10667;51.056;3.732;2022-12-07T13:15:37;8.30;;;3.28;;
21018;SDS011;10667;51.056;3.732;2022-12-07T13:18:22;7.25;;;2.78;;
21018;SDS011;10667;51.056;3.732;2022-12-07T13:29:15;6.55;;;3.45;;
21018;SDS011;10667;51.056;3.732;2022-12-07T13:31:43;12.02;;;3.47;;
21018;SDS011;10667;51.056;3.732;2022-12-07T13:34:30;10.55;;;3.38;;
21018;SDS011;10667;51.056;3.732;2022-12-07T13:36:56;9.93;;;4.25;;
21018;SDS011;10667;51.056;3.732;2022-12-07T13:39:24;12.23;;;3.33;;
21018;SDS011;10667;51.056;3.732;2022-12-07T13:41:52;6.13;;;3.10;;
21018;SDS011;10667;51.056;3.732;2022-12-07T13:44:22;11.63;;;3.47;;
21018;SDS011;10667;51.056;3.732;2022-12-07T13:49:49;7.60;;;3.05;;
21018;SDS011;10667;51.056;3.732;2022-12-07T13:52:23;10.57;;;3.47;;
21018;SDS011;10667;51.056;3.732;2022-12-07T13:57:22;4.95;;;3.45;;
21018;SDS011;10667;51.056;3.732;2022-12-07T13:59:49;7.22;;;3.00;;
21018;SDS011;10667;51.056;3.732;2022-12-07T14:13:00;7.25;;;3.42;;
21018;SDS011;10667;51.056;3.732;2022-12-07T14:15:32;5.63;;;3.00;;
21018;SDS011;10667;51.056;3.732;2022-12-07T14:18:00;12.32;;;6.40;;
21018;SDS011;10667;51.056;3.732;2022-12-07T14:22:56;6.45;;;2.60;;
21018;SDS011;10667;51.056;3.732;2022-12-07T14:25:23;6.70;;;2.60;;
21018;SDS011;10667;51.056;3.732;2022-12-07T14:30:32;5.82;;;2.95;;
21018;SDS011;10667;51.056;3.732;2022-12-07T14:32:59;9.68;;;2.80;;
21018;SDS011;10667;51.056;3.732;2022-12-07T14:35:27;6.50;;;2.70;;
21018;SDS011;10667;51.056;3.732;2022-12-07T14:37:53;7.75;;;2.72;;
21018;SDS011;10667;51.056;3.732;2022-12-07T14:40:20;5.03;;;2.42;;
21018;SDS011;10667;51.056;3.732;2022-12-07T14:42:50;5.53;;;2.10;;
21018;SDS011;10667;51.056;3.732;2022-12-07T14:45:19;4.53;;;1.83;;
21018;SDS011;10667;51.056;3.732;2022-12-07T14:47:47;7.70;;;2.90;;
21018;SDS011;10667;51.056;3.732;2022-12-07T14:50:13;10.07;;;4.15;;
21018;SDS011;10667;51.056;3.732;2022-12-07T14:52:42;10.50;;;5.03;;
21018;SDS011;10667;51.056;3.732;2022-12-07T14:55:29;10.30;;;4.55;;
21018;SDS011;10667;51.056;3.732;2022-12-07T14:57:56;3.90;;;2.50;;
21018;SDS011;10667;51.056;3.732;2022-12-07T15:00:24;6.05;;;3.15;;
21018;SDS011;10667;51.056;3.732;2022-12-07T15:02:51;7.20;;;2.65;;
21018;SDS011;10667;51.056;3.732;2022-12-07T15:05:17;5.30;;;2.75;;
21018;SDS011;10667;51.056;3.732;2022-12-07T15:07:44;5.10;;;2.58;;
21018;SDS011;10667;51.056;3.732;2022-12-07T15:10:14;5.93;;;2.65;;
21018;SDS011;10667;51.056;3.732;2022-12-07T15:12:54;10.13;;;3.13;;
21018;SDS011;10667;51.056;3.732;2022-12-07T15:15:41;4.63;;;2.47;;
21018;SDS011;10667;51.056;3.732;2022-12-07T15:18:06;4.72;;;2.28;;
21018;SDS011;10667;51.056;3.732;2022-12-07T15:20:32;4.15;;;1.98;;
21018;SDS011;10667;51.056;3.732;2022-12-07T15:22:58;4.75;;;2.38;;
21018;SDS011;10667;51.056;3.732;2022-12-07T15:25:23;4.45;;;2.00;;
21018;SDS011;10667;51.056;3.732;2022-12-07T15:27:49;7.63;;;2.50;;
21018;SDS011;10667;51.056;3.732;2022-12-07T15:30:15;4.72;;;2.28;;
21018;SDS011;10667;51.056;3.732;2022-12-07T15:32:40;5.65;;;2.97;;
21018;SDS011;10667;51.056;3.732;2022-12-07T15:35:06;6.30;;;2.58;;
21018;SDS011;10667;51.056;3.732;2022-12-07T15:37:32;4.38;;;3.00;;
21018;SDS011;10667;51.056;3.732;2022-12-07T15:39:58;8.50;;;2.97;;
21018;SDS011;10667;51.056;3.732;2022-12-07T15:42:24;8.55;;;4.05;;
21018;SDS011;10667;51.056;3.732;2022-12-07T15:44:50;11.63;;;4.35;;
21018;SDS011;10667;51.056;3.732;2022-12-07T15:47:33;8.38;;;3.83;;
21018;SDS011;10667;51.056;3.732;2022-12-07T15:50:01;10.43;;;4.10;;
21018;SDS011;10667;51.056;3.732;2022-12-07T15:52:29;7.18;;;3.35;;
21018;SDS011;10667;51.056;3.732;2022-12-07T15:54:55;6.57;;;3.63;;
21018;SDS011;10667;51.056;3.732;2022-12-07T15:57:20;9.20;;;4.70;;
21018;SDS011;10667;51.056;3.732;2022-12-07T15:59:46;5.57;;;4.13;;
21018;SDS011;10667;51.056;3.732;2022-12-07T16:02:12;9.25;;;4.90;;
21018;SDS011;10667;51.056;3.732;2022-12-07T16:04:38;6.60;;;3.42;;
21018;SDS011;10667;51.056;3.732;2022-12-07T16:07:04;8.40;;;4.20;;
21018;SDS011;10667;51.056;3.732;2022-12-07T16:09:29;9.18;;;3.88;;
21018;SDS011;10667;51.056;3.732;2022-12-07T16:11:55;6.50;;;3.53;;
21018;SDS011;10667;51.056;3.732;2022-12-07T16:14:21;6.57;;;3.60;;
21018;SDS011;10667;51.056;3.732;2022-12-07T16:16:47;8.35;;;3.83;;
21018;SDS011;10667;51.056;3.732;2022-12-07T16:19:13;12.15;;;4.35;;
21018;SDS011;10667;51.056;3.732;2022-12-07T16:21:38;9.45;;;4.03;;
21018;SDS011;10667;51.056;3.732;2022-12-07T16:24:04;7.03;;;4.00;;
21018;SDS011;10667;51.056;3.732;2022-12-07T16:26:31;12.30;;;4.95;;
21018;SDS011;10667;51.056;3.732;2022-12-07T16:28:57;11.63;;;4.22;;
21018;SDS011;10667;51.056;3.732;2022-12-07T16:31:23;10.68;;;4.95;;
21018;SDS011;10667;51.056;3.732;2022-12-07T16:33:52;10.05;;;5.30;;
21018;SDS011;10667;51.056;3.732;2022-12-07T16:36:19;14.80;;;5.38;;
21018;SDS011;10667;51.056;3.732;2022-12-07T16:38:47;8.88;;;5.50;;
21018;SDS011;10667;51.056;3.732;2022-12-07T16:41:13;11.43;;;5.13;;
21018;SDS011;10667;51.056;3.732;2022-12-07T16:43:39;10.57;;;5.10;;
21018;SDS011;10667;51.056;3.732;2022-12-07T16:46:05;10.02;;;4.78;;
21018;SDS011;10667;51.056;3.732;2022-12-07T16:48:31;8.15;;;4.85;;
21018;SDS011;10667;51.056;3.732;2022-12-07T16:51:02;9.82;;;5.10;;
21018;SDS011;10667;51.056;3.732;2022-12-07T16:53:33;8.32;;;5.00;;
21018;SDS011;10667;51.056;3.732;2022-12-07T16:56:00;11.43;;;5.55;;
21018;SDS011;10667;51.056;3.732;2022-12-07T16:58:25;14.85;;;5.85;;
21018;SDS011;10667;51.056;3.732;2022-12-07T17:00:51;12.02;;;5.78;;
21018;SDS011;10667;51.056;3.732;2022-12-07T17:03:17;13.35;;;5.80;;
21018;SDS011;10667;51.056;3.732;2022-12-07T17:05:43;13.52;;;6.22;;
21018;SDS011;10667;51.056;3.732;2022-12-07T17:08:10;11.30;;;6.53;;
21018;SDS011;10667;51.056;3.732;2022-12-07T17:10:38;16.90;;;7.55;;
21018;SDS011;10667;51.056;3.732;2022-12-07T17:13:06;12.98;;;6.38;;